createdAt,value
2023-04-30T04:00:40.346Z,6.30
2023-04-30T04:03:10.457Z,6.30
2023-04-30T04:05:38.943Z,6.40
2023-04-30T04:08:07.875Z,6.40
2023-04-30T04:10:36.803Z,6.40
2023-04-30T04:13:05.268Z,6.50
2023-04-30T04:15:33.496Z,6.50
2023-04-30T04:18:01.952Z,6.60
2023-04-30T04:20:31.523Z,6.60
2023-04-30T04:22:59.846Z,6.70
2023-04-30T04:25:28.648Z,6.70
2023-04-30T04:27:56.903Z,6.80
2023-04-30T04:30:25.121Z,6.80
2023-04-30T04:32:54.012Z,6.80
2023-04-30T04:35:22.739Z,6.90
2023-04-30T04:37:52.327Z,6.90
2023-04-30T04:40:20.831Z,7.00
2023-04-30T04:42:51.407Z,7.10
2023-04-30T04:45:20.490Z,7.10
2023-04-30T04:47:49.416Z,7.20
2023-04-30T04:50:18.080Z,7.30
2023-04-30T04:52:46.319Z,7.40
2023-04-30T04:55:16.114Z,7.40
2023-04-30T04:57:44.323Z,7.50
2023-04-30T05:00:14.092Z,7.50
2023-04-30T05:02:42.400Z,7.50
2023-04-30T05:05:11.510Z,7.60
2023-04-30T05:07:39.731Z,7.60
2023-04-30T05:10:10.363Z,7.70
2023-04-30T05:12:39.926Z,7.90
2023-04-30T05:15:09.533Z,8.00
2023-04-30T05:17:37.816Z,8.00
2023-04-30T05:20:08.670Z,8.10
2023-04-30T05:22:36.886Z,8.10
2023-04-30T05:25:05.967Z,8.20
2023-04-30T05:27:34.216Z,8.20
2023-04-30T05:30:04.359Z,8.30
2023-04-30T05:32:32.619Z,8.30
2023-04-30T05:35:00.910Z,8.40
2023-04-30T05:37:29.179Z,8.40
2023-04-30T05:39:57.388Z,8.40
2023-04-30T05:42:25.873Z,8.40
2023-04-30T05:44:55.461Z,8.50
2023-04-30T05:47:25.092Z,8.50
2023-04-30T05:49:53.810Z,8.60
2023-04-30T05:52:22.151Z,8.60
2023-04-30T05:54:50.641Z,8.70
2023-04-30T05:57:18.986Z,8.80
2023-04-30T05:59:47.237Z,8.90
2023-04-30T06:02:15.706Z,9.00
2023-04-30T06:04:45.533Z,9.10
2023-04-30T06:07:14.171Z,9.20
2023-04-30T06:09:42.341Z,9.30
2023-04-30T06:12:11.109Z,9.40
2023-04-30T06:14:39.615Z,9.50
2023-04-30T06:17:07.837Z,9.60
2023-04-30T06:19:36.145Z,9.70
2023-04-30T06:22:06.215Z,9.80
2023-04-30T06:24:34.452Z,9.90
2023-04-30T06:27:02.931Z,9.90
2023-04-30T06:29:31.175Z,10.00
2023-04-30T06:31:59.508Z,10.00
2023-04-30T06:34:27.806Z,10.10
2023-04-30T06:36:56.447Z,10.10
2023-04-30T06:39:26.592Z,10.10
2023-04-30T06:41:54.778Z,10.10
2023-04-30T06:44:23.069Z,10.00
2023-04-30T06:46:51.599Z,10.10
2023-04-30T06:49:19.728Z,10.20
2023-04-30T06:51:47.854Z,10.20
2023-04-30T06:54:16.320Z,10.30
2023-04-30T06:56:45.924Z,10.40
2023-04-30T06:59:14.072Z,10.50
2023-04-30T07:01:42.258Z,10.50
2023-04-30T07:04:10.515Z,10.40
2023-04-30T07:06:38.814Z,10.40
2023-04-30T07:09:07.091Z,10.50
2023-04-30T07:11:35.345Z,10.60
2023-04-30T07:14:05.019Z,10.60
2023-04-30T07:16:34.186Z,10.60
2023-04-30T07:19:02.482Z,10.60
2023-04-30T07:21:32.769Z,10.50
2023-04-30T07:24:01.098Z,10.50
2023-04-30T07:26:29.341Z,10.60
2023-04-30T07:28:57.592Z,10.70
2023-04-30T07:31:28.116Z,10.80
2023-04-30T07:33:56.375Z,10.80
2023-04-30T07:36:26.611Z,10.80
2023-04-30T07:38:54.912Z,10.80
2023-04-30T07:41:23.141Z,10.80
2023-04-30T07:43:51.442Z,10.80
2023-04-30T07:46:19.764Z,10.70
2023-04-30T07:48:49.373Z,10.40
2023-04-30T07:51:18.060Z,10.30
2023-04-30T07:53:47.000Z,10.40
2023-04-30T07:56:15.277Z,10.40
2023-04-30T07:58:43.692Z,10.30
2023-04-30T08:01:11.920Z,10.40
2023-04-30T08:03:40.420Z,10.50
2023-04-30T08:06:10.222Z,10.70
2023-04-30T08:08:39.576Z,10.80
2023-04-30T08:11:07.957Z,11.00
2023-04-30T08:13:36.749Z,11.10
2023-04-30T08:16:06.043Z,11.20
2023-04-30T08:18:34.327Z,11.40
2023-04-30T08:21:02.674Z,11.50
2023-04-30T08:23:32.433Z,11.50
2023-04-30T08:26:00.555Z,11.60
2023-04-30T08:28:28.811Z,11.70
2023-04-30T08:30:57.119Z,11.80
2023-04-30T08:33:25.336Z,11.80
2023-04-30T08:35:53.884Z,11.60
2023-04-30T08:38:22.130Z,11.70
2023-04-30T08:41:07.593Z,11.70
2023-04-30T08:43:36.781Z,11.70
2023-04-30T08:46:06.979Z,11.80
2023-04-30T08:48:36.260Z,11.90
2023-04-30T08:51:05.702Z,11.90
2023-04-30T08:53:38.216Z,11.80
2023-04-30T08:56:10.886Z,11.80
2023-04-30T08:58:39.583Z,11.70
2023-04-30T09:01:09.734Z,11.60
2023-04-30T09:03:38.473Z,11.70
2023-04-30T09:06:06.954Z,11.70
2023-04-30T09:08:46.933Z,11.90
2023-04-30T09:11:28.874Z,12.10
2023-04-30T09:13:58.938Z,12.10
2023-04-30T09:16:30.780Z,12.00
2023-04-30T09:18:59.188Z,11.90
2023-04-30T09:21:37.771Z,12.00
2023-04-30T09:24:08.109Z,12.10
2023-04-30T09:26:39.646Z,12.00
2023-04-30T09:29:08.853Z,12.10
2023-04-30T09:31:38.951Z,12.20
2023-04-30T09:34:07.561Z,12.30
2023-04-30T09:36:36.222Z,12.30
2023-04-30T09:39:14.221Z,12.40
2023-04-30T09:41:45.259Z,12.40
2023-04-30T09:44:29.584Z,12.60
2023-04-30T09:46:59.250Z,12.60
2023-04-30T09:49:28.235Z,12.70
2023-04-30T09:51:57.675Z,12.70
2023-04-30T09:54:28.821Z,12.90
2023-04-30T09:57:01.466Z,13.00
2023-04-30T09:59:32.318Z,13.30
2023-04-30T10:02:02.006Z,13.50
2023-04-30T10:04:35.090Z,13.70
2023-04-30T10:07:07.938Z,13.90
2023-04-30T10:09:42.464Z,14.00
2023-04-30T10:12:16.777Z,14.20
2023-04-30T10:14:53.455Z,14.30
2023-04-30T10:17:28.170Z,14.40
2023-04-30T10:20:05.505Z,14.50
2023-04-30T10:22:35.942Z,14.50
2023-04-30T10:25:04.834Z,14.60
2023-04-30T10:27:35.448Z,14.70
2023-04-30T10:30:04.356Z,15.00
2023-04-30T10:32:43.136Z,15.50
2023-04-30T10:35:20.935Z,15.90
2023-04-30T10:37:56.163Z,16.20
2023-04-30T10:40:27.760Z,16.40
2023-04-30T10:42:57.558Z,16.30
2023-04-30T10:45:38.170Z,16.40
2023-04-30T10:48:08.345Z,16.60
2023-04-30T10:50:45.805Z,16.80
2023-04-30T10:53:16.850Z,17.20
2023-04-30T10:55:50.176Z,17.60
2023-04-30T10:58:32.199Z,17.80
2023-04-30T11:01:07.043Z,18.20
2023-04-30T11:03:37.395Z,18.40
2023-04-30T11:06:14.622Z,18.60
2023-04-30T11:08:47.036Z,18.90
2023-04-30T11:11:21.748Z,19.20
2023-04-30T11:14:02.689Z,19.60
2023-04-30T11:16:31.963Z,19.90
2023-04-30T11:19:10.067Z,20.20
2023-04-30T11:21:42.365Z,20.40
2023-04-30T11:24:11.126Z,20.70
2023-04-30T11:27:06.671Z,21.00
2023-04-30T11:29:37.588Z,21.80
2023-04-30T11:32:06.670Z,22.40
2023-04-30T11:34:36.378Z,23.20
2023-04-30T11:37:04.968Z,23.40
2023-04-30T11:39:37.572Z,23.90
2023-04-30T11:42:05.839Z,24.50
2023-04-30T11:44:35.834Z,25.20
2023-04-30T11:47:04.199Z,25.60
2023-04-30T11:49:33.460Z,26.30
2023-04-30T11:52:02.001Z,27.00
2023-04-30T11:54:33.346Z,27.30
2023-04-30T11:57:04.253Z,27.90
2023-04-30T11:59:33.707Z,28.40
2023-04-30T12:02:03.253Z,29.10
2023-04-30T12:04:31.673Z,29.90
2023-04-30T12:07:02.339Z,30.50
2023-04-30T12:09:31.004Z,31.00
2023-04-30T12:11:59.364Z,31.50
2023-04-30T12:14:29.526Z,32.30
2023-04-30T12:16:59.940Z,32.90
2023-04-30T12:19:29.720Z,33.40
2023-04-30T12:21:58.029Z,33.90
2023-04-30T12:24:29.237Z,34.40
2023-04-30T12:27:00.697Z,35.10
2023-04-30T12:29:29.162Z,36.00
2023-04-30T12:31:58.069Z,36.70
2023-04-30T12:34:33.716Z,35.50
2023-04-30T12:37:03.688Z,36.00
2023-04-30T12:39:36.484Z,36.40
